| time (UTC) | temp F | wind direction | speed MPH | gust MPH | rain 1hr in | rain 24hr in | rain mn in | humidity % | barometer mb |
| 20260508104718 | 38 | 93 | 3.0 | 3.0 | 0.00 | 0.00 | 0.00 | 80 | 930.1 |
| 20260508104215 | 38 | 76 | 1.0 | 3.0 | 0.00 | 0.00 | 0.00 | 80 | 930.3 |
| 20260508103712 | 38 | 119 | 3.0 | 3.0 | 0.00 | 0.00 | 0.00 | 81 | 930.3 |
| 20260508103209 | 38 | 106 | 2.0 | 5.0 | 0.00 | 0.00 | 0.00 | 81 | 930.4 |
| 20260508102706 | 38 | 130 | 4.0 | 5.0 | 0.00 | 0.00 | 0.00 | 81 | 930.4 |
| 20260508102204 | 38 | 106 | 3.0 | 5.0 | 0.00 | 0.00 | 0.00 | 80 | 930.4 |
| 20260508101701 | 38 | 106 | 2.0 | 2.0 | 0.00 | 0.00 | 0.00 | 80 | 930.3 |
| 20260508101159 | 38 | 108 | 4.0 | 6.0 | 0.00 | 0.00 | 0.00 | 80 | 930.4 |
| 20260508100656 | 38 | 102 | 4.0 | 6.0 | 0.00 | 0.00 | 0.00 | 80 | 930.4 |
| 20260508100154 | 38 | 111 | 3.0 | 5.0 | 0.00 | 0.00 | 0.00 | 80 | 930.3 |
| 20260508095650 | 38 | 91 | 0.0 | 5.0 | 0.00 | 0.00 | 0.00 | 81 | 930.3 |
| 20260508095147 | 38 | 159 | 4.0 | 6.0 | 0.00 | 0.00 | 0.00 | 80 | 930.3 |
| 20260508094644 | 38 | 126 | 4.0 | 7.0 | 0.00 | 0.00 | 0.00 | 80 | 930.2 |
| 20260508094141 | 39 | 122 | 3.0 | 5.0 | 0.00 | 0.00 | 0.00 | 80 | 930.3 |
| 20260508093638 | 39 | 92 | 4.0 | 5.0 | 0.00 | 0.00 | 0.00 | 80 | 930.4 |
| 20260508093136 | 39 | 119 | 3.0 | 7.0 | 0.00 | 0.00 | 0.00 | 80 | 930.3 |
| 20260508092633 | 38 | 130 | 5.0 | 8.0 | 0.00 | 0.00 | 0.00 | 80 | 930.2 |
| 20260508092131 | 38 | 124 | 3.0 | 5.0 | 0.00 | 0.00 | 0.00 | 80 | 930.4 |
| 20260508091628 | 38 | 65 | 1.0 | 3.0 | 0.00 | 0.00 | 0.00 | 81 | 930.0 |
| 20260508091125 | 39 | 104 | 2.0 | 3.0 | 0.00 | 0.00 | 0.00 | 80 | 930.3 |
| 20260508090623 | 39 | 114 | 2.0 | 5.0 | 0.00 | 0.00 | 0.00 | 80 | 930.5 |
| 20260508090120 | 39 | 120 | 3.0 | 5.0 | 0.00 | 0.00 | 0.00 | 80 | 930.4 |
| 20260508085616 | 39 | 93 | 1.0 | 3.0 | 0.00 | 0.00 | 0.00 | 79 | 930.4 |
| 20260508085113 | 39 | 107 | 2.0 | 3.0 | 0.00 | 0.00 | 0.00 | 79 | 930.5 |
| 20260508084610 | 39 | 120 | 3.0 | 5.0 | 0.00 | 0.00 | 0.00 | 79 | 930.5 |
| 20260508084108 | 39 | 121 | 3.0 | 5.0 | 0.00 | 0.00 | 0.00 | 79 | 930.4 |
| 20260508083605 | 39 | 122 | 3.0 | 5.0 | 0.00 | 0.00 | 0.00 | 79 | 930.4 |
| 20260508083102 | 39 | 123 | 3.0 | 5.0 | 0.00 | 0.00 | 0.00 | 79 | 930.5 |
| 20260508082557 | 39 | 120 | 3.0 | 5.0 | 0.00 | 0.00 | 0.00 | 78 | 930.7 |
| 20260508082054 | 40 | 122 | 3.0 | 6.0 | 0.00 | 0.00 | 0.00 | 78 | 930.5 |
| 20260508081552 | 40 | 109 | 4.0 | 6.0 | 0.00 | 0.00 | 0.00 | 77 | 930.7 |
| 20260508081047 | 40 | 127 | 5.0 | 7.0 | 0.00 | 0.00 | 0.00 | 77 | 930.4 |
| 20260508080546 | 41 | 125 | 6.0 | 7.0 | 0.00 | 0.00 | 0.00 | 75 | 930.7 |
| 20260508080043 | 41 | 144 | 4.0 | 6.0 | 0.00 | 0.00 | 0.00 | 75 | 930.5 |
| 20260508075539 | 41 | 92 | 2.0 | 3.0 | 0.00 | 0.00 | 0.00 | 75 | 930.5 |
| 20260508075037 | 41 | 106 | 3.0 | 5.0 | 0.00 | 0.00 | 0.00 | 74 | 930.9 |
| 20260508074534 | 41 | 120 | 1.0 | 3.0 | 0.00 | 0.00 | 0.00 | 74 | 930.8 |
| 20260508074031 | 41 | 102 | 2.0 | 3.0 | 0.00 | 0.00 | 0.00 | 75 | 930.7 |
| 20260508073528 | 41 | 114 | 3.0 | 5.0 | 0.00 | 0.00 | 0.00 | 76 | 930.5 |
| 20260508073026 | 41 | 139 | 5.0 | 6.0 | 0.00 | 0.00 | 0.00 | 76 | 930.8 |
| 20260508072521 | 41 | 131 | 3.0 | 5.0 | 0.00 | 0.00 | 0.00 | 75 | 930.5 |
| 20260508072019 | 41 | 87 | 0.0 | 0.0 | 0.00 | 0.00 | 0.00 | 75 | 930.9 |
| 20260508071517 | 41 | 125 | 2.0 | 3.0 | 0.00 | 0.00 | 0.00 | 75 | 930.5 |
| 20260508071014 | 42 | 126 | 3.0 | 5.0 | 0.00 | 0.00 | 0.00 | 74 | 930.5 |
| 20260508070512 | 42 | 100 | 0.0 | 2.0 | 0.00 | 0.00 | 0.00 | 74 | 930.5 |
| 20260508070010 | 42 | 120 | 0.0 | 3.0 | 0.00 | 0.00 | 0.00 | 74 | 930.4 |
| 20260508065507 | 42 | 115 | 2.0 | 5.0 | 0.00 | 0.00 | 0.00 | 74 | 930.5 |
| 20260508065006 | 42 | 114 | 0.0 | 0.0 | 0.00 | 0.00 | 0.00 | 74 | 930.5 |
| 20260508064503 | 42 | 109 | 0.0 | 1.0 | 0.00 | 0.00 | 0.00 | 74 | 930.7 |
| 20260508064000 | 42 | 118 | 1.0 | 2.0 | 0.00 | 0.00 | 0.00 | 75 | 930.3 |
| 20260508063457 | 42 | 91 | 0.0 | 0.0 | 0.00 | 0.00 | 0.00 | 74 | 930.4 |
| 20260508062955 | 42 | 117 | 0.0 | 0.0 | 0.00 | 0.00 | 0.00 | 73 | 930.5 |
| 20260508062453 | 42 | 135 | 0.0 | 0.0 | 0.00 | 0.00 | 0.00 | 73 | 930.4 |
| 20260508061949 | 42 | 87 | 0.0 | 0.0 | 0.00 | 0.00 | 0.00 | 72 | 930.3 |
| 20260508061447 | 42 | 92 | 0.0 | 0.0 | 0.00 | 0.00 | 0.00 | 73 | 930.5 |
| 20260508060943 | 42 | 97 | 0.0 | 0.0 | 0.00 | 0.00 | 0.00 | 72 | 930.2 |
| 20260508060441 | 42 | 60 | 0.0 | 0.0 | 0.00 | 0.00 | 0.00 | 72 | 930.4 |
| 20260508055937 | 43 | 66 | 0.0 | 0.0 | 0.00 | 0.00 | 0.00 | 71 | 930.2 |
| 20260508055434 | 43 | 73 | 0.0 | 1.0 | 0.00 | 0.00 | 0.00 | 71 | 930.2 |
| 20260508054930 | 44 | 66 | 0.0 | 0.0 | 0.00 | 0.00 | 0.00 | 69 | 930.3 |
| 20260508054428 | 44 | 70 | 0.0 | 0.0 | 0.00 | 0.00 | 0.00 | 70 | 930.3 |
| 20260508053924 | 44 | 73 | 0.0 | 0.0 | 0.00 | 0.00 | 0.00 | 70 | 930.1 |
| 20260508053421 | 45 | 97 | 0.0 | 0.0 | 0.00 | 0.00 | 0.00 | 70 | 930.3 |
| 20260508052919 | 45 | 104 | 0.0 | 0.0 | 0.00 | 0.00 | 0.00 | 70 | 930.2 |
| 20260508052416 | 45 | 119 | 0.0 | 0.0 | 0.00 | 0.00 | 0.00 | 69 | 930.3 |
| 20260508051912 | 45 | 121 | 0.0 | 0.0 | 0.00 | 0.00 | 0.00 | 69 | 930.1 |
| 20260508051408 | 45 | 80 | 0.0 | 0.0 | 0.00 | 0.00 | 0.00 | 68 | 930.4 |
| 20260508050904 | 46 | 58 | 0.0 | 0.0 | 0.00 | 0.00 | 0.00 | 65 | 930.3 |
| 20260508050401 | 47 | 59 | 0.0 | 0.0 | 0.00 | 0.00 | 0.00 | 64 | 930.3 |
| 20260508045857 | 47 | 59 | 0.0 | 1.0 | 0.00 | 0.00 | 0.00 | 64 | 930.2 |
| 20260508045355 | 48 | 81 | 0.0 | 0.0 | 0.00 | 0.00 | 0.00 | 63 | 930.3 |
| 20260508044852 | 48 | 64 | 0.0 | 0.0 | 0.00 | 0.00 | 0.00 | 62 | 930.2 |
| 20260508044348 | 49 | 64 | 0.0 | 0.0 | 0.00 | 0.00 | 0.00 | 61 | 930.4 |
| 20260508043844 | 50 | 64 | 0.0 | 0.0 | 0.00 | 0.00 | 0.00 | 60 | 930.3 |
| 20260508043342 | 50 | 66 | 0.0 | 0.0 | 0.00 | 0.00 | 0.00 | 59 | 930.1 |
| 20260508042838 | 51 | 91 | 0.0 | 0.0 | 0.00 | 0.00 | 0.00 | 57 | 930.1 |
| 20260508042336 | 52 | 83 | 0.0 | 0.0 | 0.00 | 0.00 | 0.00 | 57 | 930.3 |
| 20260508041833 | 52 | 70 | 0.0 | 0.0 | 0.00 | 0.00 | 0.00 | 54 | 930.4 |
| 20260508041329 | 52 | 68 | 0.0 | 0.0 | 0.00 | 0.00 | 0.00 | 55 | 930.3 |
| 20260508040826 | 52 | 65 | 0.0 | 0.0 | 0.00 | 0.00 | 0.00 | 56 | 930.1 |
| 20260508040323 | 52 | 65 | 0.0 | 0.0 | 0.00 | 0.00 | 0.00 | 55 | 930.3 |
| 20260508035820 | 53 | 61 | 0.0 | 2.0 | 0.00 | 0.00 | 0.00 | 55 | 930.3 |
| 20260508035318 | 52 | 79 | 0.0 | 1.0 | 0.00 | 0.00 | 0.00 | 56 | 930.3 |
| 20260508034814 | 52 | 193 | 3.0 | 3.0 | 0.00 | 0.00 | 0.00 | 55 | 930.0 |
| 20260508034312 | 52 | 96 | 2.0 | 2.0 | 0.00 | 0.00 | 0.00 | 56 | 929.9 |
| 20260508033808 | 53 | 77 | 4.0 | 5.0 | 0.00 | 0.00 | 0.00 | 53 | 930.1 |
| 20260508033307 | 55 | 23 | 0.0 | 1.0 | 0.00 | 0.00 | 0.00 | 49 | 929.9 |
| 20260508032804 | 55 | 327 | 2.0 | 2.0 | 0.00 | 0.00 | 0.00 | 49 | 929.7 |
| 20260508032301 | 56 | 4 | 1.0 | 3.0 | 0.00 | 0.00 | 0.00 | 48 | 929.7 |
| 20260508031758 | 56 | 287 | 5.0 | 8.0 | 0.00 | 0.00 | 0.00 | 47 | 929.6 |
| 20260508031254 | 56 | 12 | 0.0 | 0.0 | 0.00 | 0.00 | 0.00 | 47 | 929.7 |
| 20260508030751 | 57 | 286 | 2.0 | 3.0 | 0.00 | 0.00 | 0.00 | 46 | 929.5 |
| 20260508030248 | 57 | 351 | 2.0 | 5.0 | 0.00 | 0.00 | 0.00 | 45 | 929.5 |
| 20260508025744 | 57 | 296 | 2.0 | 6.0 | 0.00 | 0.00 | 0.00 | 45 | 929.5 |
| 20260508025241 | 58 | 286 | 0.0 | 1.0 | 0.00 | 0.00 | 0.00 | 43 | 929.3 |
| 20260508024738 | 59 | 309 | 0.0 | 3.0 | 0.00 | 0.00 | 0.00 | 42 | 929.3 |
| 20260508024235 | 59 | 329 | 3.0 | 7.0 | 0.00 | 0.00 | 0.00 | 41 | 929.4 |
| 20260508023732 | 59 | 298 | 5.0 | 8.0 | 0.00 | 0.00 | 0.00 | 41 | 929.1 |
| 20260508023229 | 60 | 334 | 2.0 | 7.0 | 0.00 | 0.00 | 0.00 | 40 | 928.8 |
| 20260508022724 | 60 | 346 | 3.0 | 9.0 | 0.00 | 0.00 | 0.00 | 40 | 928.9 |
| 20260508022221 | 60 | 243 | 3.0 | 7.0 | 0.00 | 0.00 | 0.00 | 40 | 929.1 |
| 20260508021718 | 60 | 300 | 3.0 | 8.0 | 0.00 | 0.00 | 0.00 | 39 | 929.1 |
| 20260508021214 | 61 | 311 | 5.0 | 10.0 | 0.00 | 0.00 | 0.00 | 39 | 929.1 |
| 20260508020711 | 61 | 345 | 6.0 | 8.0 | 0.00 | 0.00 | 0.00 | 38 | 929.2 |
| 20260508020208 | 61 | 239 | 1.0 | 11.0 | 0.00 | 0.00 | 0.00 | 38 | 928.8 |
| 20260508015706 | 62 | 277 | 6.0 | 8.0 | 0.00 | 0.00 | 0.00 | 37 | 929.4 |
| 20260508015202 | 62 | 298 | 2.0 | 10.0 | 0.00 | 0.00 | 0.00 | 36 | 929.2 |
| 20260508014659 | 62 | 307 | 2.0 | 8.0 | 0.00 | 0.00 | 0.00 | 36 | 929.1 |
| 20260508014155 | 62 | 301 | 2.0 | 11.0 | 0.00 | 0.00 | 0.00 | 35 | 929.2 |
| 20260508013652 | 63 | 330 | 10.0 | 16.0 | 0.00 | 0.00 | 0.00 | 34 | 929.2 |
| 20260508013148 | 63 | 256 | 6.0 | 13.0 | 0.00 | 0.00 | 0.00 | 35 | 929.3 |
| 20260508012646 | 64 | 307 | 8.0 | 11.0 | 0.00 | 0.00 | 0.00 | 34 | 929.3 |
| 20260508012143 | 64 | 348 | 6.0 | 9.0 | 0.00 | 0.00 | 0.00 | 34 | 929.5 |
| 20260508011641 | 64 | 303 | 9.0 | 15.0 | 0.00 | 0.00 | 0.00 | 33 | 929.5 |
| 20260508011138 | 65 | 259 | 7.0 | 9.0 | 0.00 | 0.00 | 0.00 | 33 | 929.7 |
| 20260508010635 | 64 | 252 | 6.0 | 10.0 | 0.00 | 0.00 | 0.00 | 33 | 929.7 |
| 20260508010133 | 65 | 269 | 8.0 | 9.0 | 0.00 | 0.00 | 0.00 | 33 | 929.7 |
| 20260508005630 | 64 | 252 | 6.0 | 15.0 | 0.00 | 0.00 | 0.00 | 33 | 929.7 |
| 20260508005126 | 65 | 266 | 5.0 | 11.0 | 0.00 | 0.00 | 0.00 | 33 | 929.6 |
| 20260508004622 | 65 | 245 | 5.0 | 9.0 | 0.00 | 0.00 | 0.00 | 33 | 929.9 |
| 20260508004119 | 64 | 231 | 9.0 | 13.0 | 0.00 | 0.00 | 0.00 | 32 | 929.6 |
| 20260508003615 | 64 | 332 | 5.0 | 16.0 | 0.00 | 0.00 | 0.00 | 32 | 929.5 |
| 20260508003113 | 65 | 324 | 8.0 | 9.0 | 0.00 | 0.00 | 0.00 | 32 | 929.7 |
| 20260508002609 | 65 | 288 | 5.0 | 15.0 | 0.00 | 0.00 | 0.00 | 32 | 929.7 |
| 20260508002107 | 64 | 275 | 5.0 | 10.0 | 0.00 | 0.00 | 0.00 | 34 | 930.0 |
| 20260508001602 | 64 | 240 | 7.0 | 16.0 | 0.00 | 0.00 | 0.00 | 34 | 929.6 |
| 20260508001058 | 64 | 26 | 1.0 | 11.0 | 0.00 | 0.00 | 0.00 | 35 | 929.7 |
| 20260508000554 | 64 | 249 | 0.0 | 10.0 | 0.00 | 0.00 | 0.00 | 34 | 930.0 |
| 20260508000052 | 64 | 250 | 5.0 | 8.0 | 0.00 | 0.00 | 0.00 | 34 | 929.7 |
| 20260507235548 | 64 | 268 | 6.0 | 13.0 | 0.00 | 0.00 | 0.00 | 34 | 930.0 |
| 20260507235046 | 63 | 347 | 7.0 | 15.0 | 0.00 | 0.00 | 0.00 | 35 | 929.7 |
| 20260507234542 | 63 | 244 | 5.0 | 13.0 | 0.00 | 0.00 | 0.00 | 34 | 930.0 |
| 20260507234038 | 61 | 295 | 8.0 | 17.0 | 0.00 | 0.00 | 0.00 | 35 | 929.4 |
| 20260507233535 | 61 | 16 | 11.0 | 14.0 | 0.00 | 0.00 | 0.00 | 36 | 929.5 |
| 20260507233034 | 61 | 285 | 7.0 | 18.0 | 0.00 | 0.00 | 0.00 | 36 | 929.6 |
| 20260507232530 | 61 | 242 | 4.0 | 10.0 | 0.00 | 0.00 | 0.00 | 36 | 929.5 |
| 20260507232027 | 62 | 343 | 6.0 | 15.0 | 0.00 | 0.00 | 0.00 | 35 | 929.6 |
| 20260507231524 | 62 | 264 | 6.0 | 11.0 | 0.00 | 0.00 | 0.00 | 36 | 930.1 |
| 20260507231021 | 61 | 338 | 7.0 | 14.0 | 0.00 | 0.00 | 0.00 | 36 | 930.0 |
| 20260507230518 | 62 | 351 | 5.0 | 13.0 | 0.00 | 0.00 | 0.00 | 36 | 930.0 |
| 20260507230014 | 62 | 310 | 9.0 | 15.0 | 0.00 | 0.00 | 0.00 | 35 | 930.1 |
| 20260507225510 | 62 | 332 | 9.0 | 18.0 | 0.00 | 0.00 | 0.00 | 34 | 930.1 |
| 20260507225006 | 62 | 251 | 3.0 | 13.0 | 0.00 | 0.00 | 0.00 | 34 | 930.0 |
| 20260507224502 | 62 | 260 | 9.0 | 13.0 | 0.00 | 0.00 | 0.00 | 34 | 930.0 |
| 20260507223958 | 62 | 244 | 9.0 | 13.0 | 0.00 | 0.00 | 0.00 | 34 | 930.1 |
| 20260507223454 | 62 | 308 | 11.0 | 18.0 | 0.00 | 0.00 | 0.00 | 33 | 930.3 |
| 20260507222952 | 62 | 32 | 8.0 | 15.0 | 0.00 | 0.00 | 0.00 | 33 | 930.4 |
| 20260507222448 | 62 | 256 | 7.0 | 21.0 | 0.00 | 0.00 | 0.00 | 34 | 930.3 |
| 20260507221945 | 63 | 287 | 7.0 | 13.0 | 0.00 | 0.00 | 0.00 | 33 | 930.4 |
| 20260507221442 | 63 | 286 | 11.0 | 14.0 | 0.00 | 0.00 | 0.00 | 33 | 930.4 |
| 20260507220938 | 62 | 352 | 9.0 | 15.0 | 0.00 | 0.00 | 0.00 | 33 | 930.4 |
| 20260507220436 | 62 | 319 | 4.0 | 14.0 | 0.00 | 0.00 | 0.00 | 33 | 930.5 |
| 20260507215932 | 62 | 22 | 9.0 | 15.0 | 0.00 | 0.00 | 0.00 | 32 | 930.3 |
| 20260507215429 | 63 | 300 | 5.0 | 14.0 | 0.00 | 0.00 | 0.00 | 31 | 930.4 |
| 20260507214926 | 63 | 317 | 12.0 | 18.0 | 0.00 | 0.00 | 0.00 | 31 | 930.9 |
| 20260507214424 | 63 | 313 | 8.0 | 24.0 | 0.00 | 0.00 | 0.00 | 31 | 930.9 |
| 20260507213919 | 63 | 312 | 9.0 | 18.0 | 0.00 | 0.00 | 0.00 | 31 | 930.8 |
| 20260507213416 | 63 | 358 | 8.0 | 21.0 | 0.00 | 0.00 | 0.00 | 33 | 930.7 |
| 20260507212913 | 63 | 289 | 7.0 | 9.0 | 0.00 | 0.00 | 0.00 | 32 | 931.0 |
| 20260507212409 | 63 | 295 | 12.0 | 15.0 | 0.00 | 0.00 | 0.00 | 32 | 930.9 |
| 20260507211906 | 62 | 331 | 8.0 | 16.0 | 0.00 | 0.00 | 0.00 | 34 | 930.5 |
| 20260507211402 | 62 | 247 | 5.0 | 13.0 | 0.00 | 0.00 | 0.00 | 32 | 930.9 |
| 20260507210859 | 62 | 321 | 17.0 | 26.0 | 0.00 | 0.00 | 0.00 | 32 | 930.7 |
| 20260507210356 | 63 | 308 | 4.0 | 13.0 | 0.00 | 0.00 | 0.00 | 33 | 930.8 |
| 20260507205852 | 63 | 236 | 9.0 | 17.0 | 0.00 | 0.00 | 0.00 | 32 | 930.7 |
| 20260507205349 | 63 | 261 | 1.0 | 14.0 | 0.00 | 0.00 | 0.00 | 33 | 930.7 |
| 20260507204846 | 63 | 260 | 7.0 | 16.0 | 0.00 | 0.00 | 0.00 | 32 | 930.7 |
| 20260507204343 | 63 | 261 | 12.0 | 21.0 | 0.00 | 0.00 | 0.00 | 31 | 930.8 |
| 20260507203841 | 63 | 289 | 9.0 | 21.0 | 0.00 | 0.00 | 0.00 | 32 | 930.7 |
| 20260507203338 | 63 | 295 | 11.0 | 18.0 | 0.00 | 0.00 | 0.00 | 30 | 930.7 |
| 20260507202834 | 64 | 341 | 10.0 | 20.0 | 0.00 | 0.00 | 0.00 | 32 | 930.3 |
| 20260507202331 | 64 | 298 | 8.0 | 18.0 | 0.00 | 0.00 | 0.00 | 33 | 930.4 |
| 20260507201826 | 64 | 312 | 11.0 | 18.0 | 0.00 | 0.00 | 0.00 | 31 | 930.7 |
| 20260507201322 | 63 | 323 | 8.0 | 20.0 | 0.00 | 0.00 | 0.00 | 32 | 930.7 |
| 20260507200819 | 64 | 304 | 12.0 | 21.0 | 0.00 | 0.00 | 0.00 | 31 | 930.7 |
| 20260507200315 | 64 | 184 | 11.0 | 20.0 | 0.00 | 0.00 | 0.00 | 32 | 930.7 |
| 20260507195811 | 65 | 1 | 9.0 | 17.0 | 0.00 | 0.00 | 0.00 | 31 | 930.7 |
| 20260507195308 | 66 | 317 | 15.0 | 17.0 | 0.00 | 0.00 | 0.00 | 29 | 930.5 |
| 20260507194806 | 65 | 300 | 14.0 | 23.0 | 0.00 | 0.00 | 0.00 | 31 | 930.8 |
| 20260507194302 | 67 | 274 | 10.0 | 20.0 | 0.00 | 0.00 | 0.00 | 31 | 930.8 |
| 20260507193758 | 65 | 190 | 10.0 | 14.0 | 0.00 | 0.00 | 0.00 | 34 | 930.7 |
| 20260507193255 | 63 | 287 | 1.0 | 14.0 | 0.00 | 0.00 | 0.00 | 35 | 930.8 |
| 20260507192751 | 63 | 289 | 11.0 | 20.0 | 0.00 | 0.00 | 0.00 | 35 | 930.9 |
| 20260507192248 | 64 | 299 | 13.0 | 18.0 | 0.00 | 0.00 | 0.00 | 35 | 931.1 |
| 20260507191744 | 63 | 307 | 13.0 | 18.0 | 0.00 | 0.00 | 0.00 | 33 | 930.9 |
| 20260507191241 | 63 | 266 | 2.0 | 13.0 | 0.00 | 0.00 | 0.00 | 36 | 930.8 |
| 20260507190738 | 63 | 257 | 10.0 | 13.0 | 0.00 | 0.00 | 0.00 | 35 | 931.0 |
| 20260507190236 | 62 | 317 | 2.0 | 11.0 | 0.00 | 0.00 | 0.00 | 37 | 930.8 |
| 20260507185735 | 63 | 308 | 8.0 | 13.0 | 0.00 | 0.00 | 0.00 | 36 | 931.0 |
| 20260507185231 | 62 | 266 | 6.0 | 9.0 | 0.00 | 0.00 | 0.00 | 37 | 930.9 |
| 20260507184729 | 63 | 259 | 15.0 | 24.0 | 0.00 | 0.00 | 0.00 | 36 | 931.1 |
| 20260507184227 | 63 | 269 | 5.0 | 9.0 | 0.00 | 0.00 | 0.00 | 37 | 930.9 |
| 20260507183723 | 61 | 275 | 6.0 | 18.0 | 0.00 | 0.00 | 0.00 | 36 | 930.9 |
| 20260507183220 | 62 | 264 | 8.0 | 17.0 | 0.00 | 0.00 | 0.00 | 36 | 931.1 |
| 20260507182717 | 62 | 240 | 11.0 | 14.0 | 0.00 | 0.00 | 0.00 | 35 | 930.9 |
| 20260507182212 | 61 | 271 | 7.0 | 9.0 | 0.00 | 0.00 | 0.00 | 36 | 931.2 |
| 20260507181709 | 62 | 270 | 12.0 | 21.0 | 0.00 | 0.00 | 0.00 | 36 | 931.1 |
| 20260507181206 | 62 | 252 | 8.0 | 18.0 | 0.00 | 0.00 | 0.00 | 36 | 931.0 |
| 20260507180702 | 61 | 216 | 7.0 | 11.0 | 0.00 | 0.00 | 0.00 | 35 | 931.0 |
| 20260507180159 | 60 | 330 | 7.0 | 18.0 | 0.00 | 0.00 | 0.00 | 36 | 931.1 |
| 20260507175655 | 60 | 287 | 13.0 | 17.0 | 0.00 | 0.00 | 0.00 | 36 | 931.2 |
| 20260507175152 | 61 | 253 | 7.0 | 15.0 | 0.00 | 0.00 | 0.00 | 36 | 931.3 |
| 20260507174649 | 61 | 271 | 11.0 | 18.0 | 0.00 | 0.00 | 0.00 | 36 | 931.3 |
| 20260507174148 | 61 | 293 | 5.0 | 13.0 | 0.00 | 0.00 | 0.00 | 37 | 931.3 |
| 20260507173644 | 60 | 261 | 8.0 | 14.0 | 0.00 | 0.00 | 0.00 | 36 | 931.5 |
| 20260507173141 | 60 | 290 | 2.0 | 11.0 | 0.00 | 0.00 | 0.00 | 37 | 931.3 |
| 20260507172637 | 61 | 265 | 6.0 | 11.0 | 0.00 | 0.00 | 0.00 | 36 | 931.2 |
| 20260507172135 | 62 | 257 | 3.0 | 8.0 | 0.00 | 0.00 | 0.00 | 37 | 931.6 |
| 20260507171629 | 61 | 267 | 9.0 | 11.0 | 0.00 | 0.00 | 0.00 | 36 | 931.3 |
| 20260507171127 | 62 | 62 | 8.0 | 17.0 | 0.00 | 0.00 | 0.00 | 36 | 931.6 |
| 20260507170624 | 62 | 320 | 6.0 | 18.0 | 0.00 | 0.00 | 0.00 | 35 | 931.5 |
| 20260507170121 | 62 | 345 | 8.0 | 17.0 | 0.00 | 0.00 | 0.00 | 35 | 931.7 |
| 20260507165616 | 62 | 250 | 11.0 | 16.0 | 0.00 | 0.00 | 0.00 | 36 | 931.8 |
| 20260507165113 | 61 | 278 | 4.0 | 15.0 | 0.00 | 0.00 | 0.00 | 37 | 931.7 |
| 20260507164609 | 61 | 196 | 5.0 | 17.0 | 0.00 | 0.00 | 0.00 | 38 | 931.8 |
| 20260507164106 | 61 | 275 | 7.0 | 9.0 | 0.00 | 0.00 | 0.00 | 37 | 931.7 |
| 20260507163604 | 61 | 287 | 3.0 | 9.0 | 0.00 | 0.00 | 0.00 | 39 | 931.9 |
| 20260507163102 | 59 | 257 | 2.0 | 9.0 | 0.00 | 0.00 | 0.00 | 40 | 932.0 |
| 20260507162601 | 57 | 217 | 8.0 | 11.0 | 0.00 | 0.00 | 0.00 | 41 | 932.1 |
| 20260507162059 | 58 | 214 | 6.0 | 10.0 | 0.00 | 0.00 | 0.00 | 40 | 932.0 |
| 20260507161555 | 59 | 269 | 5.0 | 13.0 | 0.00 | 0.00 | 0.00 | 39 | 932.1 |
| 20260507161051 | 58 | 177 | 6.0 | 8.0 | 0.00 | 0.00 | 0.00 | 40 | 932.3 |
| 20260507160548 | 58 | 124 | 0.0 | 3.0 | 0.00 | 0.00 | 0.00 | 43 | 932.3 |
| 20260507160044 | 57 | 224 | 4.0 | 6.0 | 0.00 | 0.00 | 0.00 | 43 | 932.4 |
| 20260507155539 | 57 | 213 | 5.0 | 6.0 | 0.00 | 0.00 | 0.00 | 44 | 932.5 |
| 20260507155037 | 55 | 158 | 0.0 | 1.0 | 0.00 | 0.00 | 0.00 | 47 | 932.4 |
| 20260507154534 | 53 | 59 | 0.0 | 0.0 | 0.00 | 0.00 | 0.00 | 48 | 932.5 |
| 20260507154031 | 52 | 87 | 0.0 | 3.0 | 0.00 | 0.00 | 0.00 | 51 | 932.4 |
| 20260507153528 | 53 | 54 | 0.0 | 0.0 | 0.00 | 0.00 | 0.00 | 50 | 932.6 |
| 20260507153024 | 52 | 14 | 0.0 | 0.0 | 0.00 | 0.00 | 0.00 | 48 | 932.6 |
| 20260507152519 | 52 | 351 | 0.0 | 0.0 | 0.00 | 0.00 | 0.00 | 48 | 932.5 |
| 20260507152016 | 53 | 350 | 0.0 | 5.0 | 0.00 | 0.00 | 0.00 | 47 | 932.4 |
| 20260507151513 | 53 | 192 | 3.0 | 7.0 | 0.00 | 0.00 | 0.00 | 46 | 932.5 |
| 20260507151010 | 53 | 282 | 1.0 | 3.0 | 0.00 | 0.00 | 0.00 | 46 | 932.4 |
| 20260507150506 | 53 | 233 | 2.0 | 6.0 | 0.00 | 0.00 | 0.00 | 47 | 932.4 |
| 20260507150003 | 53 | 229 | 2.0 | 8.0 | 0.00 | 0.00 | 0.00 | 47 | 932.3 |
| 20260507145458 | 52 | 12 | 0.0 | 1.0 | 0.00 | 0.00 | 0.00 | 51 | 932.4 |
| 20260507144955 | 51 | 186 | 0.0 | 1.0 | 0.00 | 0.00 | 0.00 | 51 | 932.5 |
| 20260507144452 | 50 | 131 | 0.0 | 2.0 | 0.00 | 0.00 | 0.00 | 52 | 932.5 |
| 20260507143949 | 50 | 150 | 0.0 | 3.0 | 0.00 | 0.00 | 0.00 | 51 | 932.4 |
| 20260507143447 | 49 | 53 | 0.0 | 0.0 | 0.00 | 0.00 | 0.00 | 55 | 932.5 |
| 20260507142943 | 48 | 90 | 0.0 | 0.0 | 0.00 | 0.00 | 0.00 | 57 | 932.5 |
| 20260507142439 | 48 | 96 | 0.0 | 0.0 | 0.00 | 0.00 | 0.00 | 57 | 932.9 |
| 20260507141937 | 48 | 131 | 0.0 | 0.0 | 0.00 | 0.00 | 0.00 | 58 | 932.8 |
| 20260507141432 | 46 | 87 | 0.0 | 0.0 | 0.00 | 0.00 | 0.00 | 61 | 932.7 |
| 20260507140929 | 46 | 78 | 0.0 | 0.0 | 0.00 | 0.00 | 0.00 | 63 | 932.7 |
| 20260507140426 | 46 | 92 | 0.0 | 0.0 | 0.00 | 0.00 | 0.00 | 62 | 933.3 |
| 20260507135924 | 45 | 89 | 0.0 | 0.0 | 0.00 | 0.00 | 0.00 | 63 | 933.1 |
| 20260507135420 | 45 | 97 | 0.0 | 0.0 | 0.00 | 0.00 | 0.00 | 62 | 933.2 |
| 20260507134918 | 45 | 80 | 0.0 | 0.0 | 0.00 | 0.00 | 0.00 | 62 | 933.5 |
| 20260507134414 | 44 | 93 | 0.0 | 0.0 | 0.00 | 0.00 | 0.00 | 64 | 933.7 |
| 20260507133910 | 43 | 84 | 0.0 | 0.0 | 0.00 | 0.00 | 0.00 | 69 | 934.0 |
| 20260507133406 | 42 | 60 | 0.0 | 1.0 | 0.00 | 0.00 | 0.00 | 69 | 934.1 |
| 20260507132905 | 41 | 113 | 4.0 | 6.0 | 0.00 | 0.00 | 0.00 | 69 | 934.4 |
| 20260507132400 | 41 | 114 | 1.0 | 5.0 | 0.00 | 0.00 | 0.00 | 70 | 934.4 |
| 20260507131858 | 41 | 117 | 5.0 | 7.0 | 0.00 | 0.00 | 0.00 | 70 | 934.1 |
| 20260507131354 | 41 | 105 | 3.0 | 6.0 | 0.00 | 0.00 | 0.00 | 70 | 933.1 |
| 20260507130851 | 41 | 123 | 0.0 | 3.0 | 0.00 | 0.00 | 0.00 | 71 | 932.1 |
| 20260507130348 | 40 | 140 | 0.0 | 1.0 | 0.00 | 0.00 | 0.00 | 72 | 932.0 |
| 20260507125847 | 39 | 54 | 0.0 | 0.0 | 0.00 | 0.00 | 0.00 | 74 | 932.1 |
| 20260507125344 | 39 | 67 | 0.0 | 0.0 | 0.00 | 0.00 | 0.00 | 74 | 931.9 |
| 20260507124842 | 39 | 93 | 0.0 | 2.0 | 0.00 | 0.00 | 0.00 | 74 | 932.1 |
| 20260507124338 | 39 | 64 | 0.0 | 1.0 | 0.00 | 0.00 | 0.00 | 72 | 932.0 |
| 20260507123837 | 40 | 66 | 0.0 | 0.0 | 0.00 | 0.00 | 0.00 | 70 | 931.9 |
| 20260507123333 | 41 | 109 | 0.0 | 0.0 | 0.00 | 0.00 | 0.00 | 67 | 932.0 |
| 20260507122830 | 41 | 115 | 0.0 | 0.0 | 0.00 | 0.00 | 0.00 | 69 | 932.0 |
| 20260507122325 | 40 | 33 | 0.0 | 0.0 | 0.00 | 0.00 | 0.00 | 68 | 931.9 |
| 20260507121822 | 39 | 45 | 0.0 | 0.0 | 0.00 | 0.00 | 0.00 | 73 | 931.9 |
| 20260507121317 | 39 | 50 | 0.0 | 0.0 | 0.00 | 0.00 | 0.00 | 73 | 931.9 |
| 20260507120814 | 38 | 42 | 0.0 | 0.0 | 0.00 | 0.00 | 0.00 | 75 | 931.8 |
| 20260507120310 | 37 | 53 | 0.0 | 0.0 | 0.00 | 0.00 | 0.00 | 76 | 932.0 |
| 20260507115806 | 37 | 81 | 0.0 | 0.0 | 0.00 | 0.00 | 0.00 | 77 | 932.0 |
| 20260507115306 | 36 | 64 | 0.0 | 0.0 | 0.00 | 0.00 | 0.00 | 78 | 931.8 |
| 20260507114758 | 36 | 55 | 0.0 | 0.0 | 0.00 | 0.00 | 0.00 | 77 | 931.7 |
| 20260507114256 | 37 | 73 | 0.0 | 0.0 | 0.00 | 0.00 | 0.00 | 75 | 931.9 |
| 20260507113753 | 37 | 80 | 0.0 | 0.0 | 0.00 | 0.00 | 0.00 | 74 | 931.9 |
| 20260507113249 | 37 | 46 | 0.0 | 0.0 | 0.00 | 0.00 | 0.00 | 76 | 932.1 |
| 20260507112748 | 37 | 45 | 0.0 | 0.0 | 0.00 | 0.00 | 0.00 | 76 | 931.8 |
| 20260507112244 | 37 | 45 | 0.0 | 0.0 | 0.00 | 0.00 | 0.00 | 76 | 931.7 |
| 20260507111742 | 37 | 42 | 1.0 | 2.0 | 0.00 | 0.00 | 0.00 | 76 | 931.9 |
| 20260507111238 | 37 | 74 | 0.0 | 0.0 | 0.00 | 0.00 | 0.00 | 76 | 931.8 |
| 20260507110734 | 37 | 78 | 0.0 | 0.0 | 0.00 | 0.00 | 0.00 | 76 | 931.9 |
| 20260507110231 | 37 | 72 | 0.0 | 0.0 | 0.00 | 0.00 | 0.00 | 77 | 931.9 |
| 20260507105728 | 37 | 91 | 0.0 | 0.0 | 0.00 | 0.00 | 0.00 | 77 | 932.1 |
| 20260507105224 | 37 | 94 | 0.0 | 0.0 | 0.00 | 0.00 | 0.00 | 75 | 932.3 |